Sun Valley, CA

3:56 PM PDT on April 25, 2015 (GMT -0700)
Valley College Weather Station | | Change Station
CLOSE
Current Station
Personal Weather Station
Location: Valley Glen, CA
Elevation: 699 ft
Nearby Weather Stations
Active Advisory: Wind Advisory Active Notice: Record Report, Public Information Statement

Elev 699 ft 34.18 °N, 118.42 °W | Updated 14 seconds ago

Overcast
Overcast
59.6 °F
Feels Like 59.6 °F
N
0.0
Wind Variable Wind from ENE
Gusts 2.0 mph

Today
High -- | Low -- °F
--% Chance of Precip.
Yesterday
High -- | Low -- °F
Precip. -- in
6:10 AM 7:32 PM
Waxing Crescent, 49% visible
Pressure 29.86 in
Visibility 2.0 miles
Clouds Mostly Cloudy 1800 ft
Overcast 2400 ft
Dew Point 54 °F
Humidity 83%
Rainfall 0.00 in
Snow Depth Not available.
UV 2 out of 12
Pollen 6.90 out of 12
Air Quality Not available.
Flu Activity Sporadic
METAR KBUR 252253Z 00000KT 2SM +RA BR BKN018 OVC024 14/12 A2988 RMK AO2 SLP111 P0007 T01440122

More Conditions Fewer Conditions

Pressure 29.86 in
Visibility 2.0 miles
Clouds Mostly Cloudy 1800 ft
Overcast 2400 ft
Dew Point 54 °F
Humidity 83%
Rainfall 0.00 in
Snow Depth Not available.
UV 2 out of 12
Pollen 6.90 out of 12
Air Quality Not available.
Flu Activity Sporadic
METAR KBUR 252253Z 00000KT 2SM +RA BR BKN018 OVC024 14/12 A2988 RMK AO2 SLP111 P0007 T01440122

More Conditions Fewer Conditions

10-Day Weather Forecast

Almanac

Astronomy

Apr. 25, 2015 Rise Set
Actual Time
Civil Twilight
Nautical Twilight
Astronomical Twilight
Moon
Length of Visible Light
Length of Day
Tomorrow will be .
, % of the Moon is Illuminated

Today's Extremes

State Highs State Lows

Community

WunderPhotos

Upload Photos

1,816,841 photos uploaded!

WunderBlogs® & News

Nearby

Air Quality

  Air Quality AQ Index Pollutant
Not available.

Snow Depth

Station Depth Elevation

Earthquake Activity

City Distance Mag. Time & Date
Minimum magnitude displayed is 2.5.

Coastal Water Temperatures

Place Temperature

Stations

Nearby Weather Stations

Station Location Temp. Windchill Dew Point Humidity Wind Precip. Elev Updated Type
                   
Wind Advisory
Statement as of 2:39 PM PDT on April 25, 2015

... Wind Advisory remains in effect from 10 PM this evening to
10 am PDT Sunday...

* winds and timing... areas of north winds increasing overnight
to 15 to 25 mph with gusts to 40 mph. Isolated gusts to 50 mph
across higher terrain.

* Impacts... gusty winds will make driving difficult... especially
for drivers of high profile vehicles. Major roadways that
could be affected include interstates 5 and 405... as well as
Highway 118.

Precautionary/preparedness actions...

When driving... use extra caution. Be prepared for sudden gusty
cross winds.